Rechercher aéroport 
image banner adimage banner adimage banner ad
image banner ad

3CA1 - Newport Beach Police

Situé à Newport Beach, United States

ICAO - 3CA1, IATA -

Données fournies par Airmate  

Information générale

Coordonnées: N33°37'23" W117°52'49"
Élévation : 156 feet MSL.
Variation magnétique : 14° East
Voir autres Aéroports à California

Données opérationnelles

Special qualification required
Heure actuelle UTC:
Heure actuelle locale:
METAR: KSNA 212153Z 26005KT 10SM CLR 33/14 A3000 RMK AO2 SLP158 T03330144
TAF: KSNA 211720Z 2118/2218 VRB04KT P6SM FEW010 FM212000 22008KT P6SM SKC FM220300 VRB04KT P6SM SKC
Voir NOTAMs / SUP AIP / TFR affectant cet aéroport [VIEW]
Fréquences de communication: [VIEW]

Pistes:

Coordonnées de l'aéroport

Adresse: Newport Beach United States

Vue satellite de 3CA1